Time;durP1;ratioP1;P1;durP2;ratioP2;P2;SDS_P1;SDS_P2;PMS_P1;PMS_P2;Temp;Humidity;BMP_temperature;BMP_pressure;BME280_temperature;BME280_humidity;BME280_pressure;Samples;Min_cycle;Max_cycle;Signal;HPM_P1;HPM_P2
2022/05/20 00:00:41;;;;;;;6.63;4.15;;;14.50;99.90;;;;;;6294730;28;20090;-70
2022/05/20 00:03:43;;;;;;;8.23;4.45;;;14.60;99.90;;;;;;6293819;28;20214;-70
2022/05/20 00:06:46;;;;;;;8.80;4.35;;;14.60;99.90;;;;;;6289801;28;20049;-70
2022/05/20 00:09:48;;;;;;;7.88;3.70;;;14.60;99.90;;;;;;6290265;28;20114;-70
2022/05/20 00:12:51;;;;;;;8.93;3.88;;;14.50;99.90;;;;;;6289607;28;20191;-70
2022/05/20 00:15:53;;;;;;;9.35;4.03;;;14.60;99.90;;;;;;6291766;28;20190;-70
2022/05/20 00:18:55;;;;;;;6.20;4.10;;;14.70;99.90;;;;;;6293724;28;20457;-70
2022/05/20 00:21:58;;;;;;;8.30;4.45;;;14.60;99.90;;;;;;6294618;28;20157;-69
2022/05/20 00:28:21;;;;;;;8.48;5.07;;;14.50;99.90;;;;;;6290738;28;20056;-70
2022/05/20 00:31:25;;;;;;;7.22;5.32;;;14.40;99.90;;;;;;6293230;28;20147;-69
2022/05/20 00:34:27;;;;;;;6.97;5.18;;;14.30;99.90;;;;;;6292249;28;20147;-70
2022/05/20 00:37:30;;;;;;;10.32;6.47;;;14.30;99.90;;;;;;6292632;28;20098;-70
2022/05/20 00:40:32;;;;;;;8.73;5.65;;;14.20;99.90;;;;;;6298557;28;20135;-70
2022/05/20 00:43:37;;;;;;;10.18;7.30;;;14.10;99.90;;;;;;6289360;28;20566;-70
2022/05/20 00:46:39;;;;;;;6.88;3.72;;;14.10;99.90;;;;;;6296918;28;20090;-69
2022/05/20 00:49:43;;;;;;;12.15;6.82;;;14.00;99.90;;;;;;6298691;28;20139;-70
2022/05/20 00:52:50;;;;;;;9.23;6.28;;;14.10;99.90;;;;;;6297693;28;20757;-70
2022/05/20 00:55:52;;;;;;;8.00;5.82;;;14.10;99.90;;;;;;6297884;28;20125;-70
2022/05/20 00:58:55;;;;;;;9.15;6.20;;;14.00;99.90;;;;;;6297366;28;20076;-70
2022/05/20 01:02:03;;;;;;;10.10;6.57;;;14.00;99.90;;;;;;6297919;28;20162;-70
2022/05/20 01:05:13;;;;;;;8.80;5.68;;;14.00;99.90;;;;;;6296102;28;20498;-69
2022/05/20 01:08:19;;;;;;;7.90;5.57;;;13.90;99.90;;;;;;6297953;28;20126;-70
2022/05/20 01:11:21;;;;;;;8.25;6.05;;;14.00;99.90;;;;;;6297368;28;20051;-70
2022/05/20 01:14:26;;;;;;;10.57;5.90;;;14.00;99.90;;;;;;6296503;28;20084;-70
2022/05/20 01:17:28;;;;;;;8.18;6.25;;;14.00;99.90;;;;;;6298068;28;20239;-70
2022/05/20 01:20:33;;;;;;;9.20;6.28;;;14.00;99.90;;;;;;6295700;28;20040;-70
2022/05/20 01:23:38;;;;;;;11.38;6.75;;;14.00;99.90;;;;;;6296592;28;20084;-70
2022/05/20 01:26:39;;;;;;;8.77;5.75;;;14.00;99.90;;;;;;6296949;28;20512;-70
2022/05/20 01:29:41;;;;;;;8.52;6.75;;;14.00;99.90;;;;;;6291554;28;20084;-70
2022/05/20 01:32:43;;;;;;;10.27;6.47;;;14.00;99.90;;;;;;6290991;28;20045;-69
2022/05/20 01:35:47;;;;;;;8.75;7.20;;;13.90;99.90;;;;;;6297524;28;20501;-69
2022/05/20 01:38:52;;;;;;;;;;;13.90;99.90;;;;;;6296124;28;20052;-72
2022/05/20 01:42:00;;;;;;;11.27;8.23;;;13.80;99.90;;;;;;6296688;28;20015;-69
2022/05/20 01:45:07;;;;;;;10.98;7.00;;;13.80;99.90;;;;;;6294917;28;20544;-70
2022/05/20 01:48:18;;;;;;;12.15;7.90;;;13.80;99.90;;;;;;6293670;28;20538;-69
2022/05/20 01:51:23;;;;;;;14.55;8.25;;;13.90;99.90;;;;;;6295325;28;20056;-70
2022/05/20 01:54:31;;;;;;;12.23;8.40;;;13.90;99.90;;;;;;6293247;28;20041;-70
2022/05/20 01:57:40;;;;;;;10.73;7.93;;;13.90;99.90;;;;;;6292513;28;20133;-70
2022/05/20 02:00:44;;;;;;;9.68;8.00;;;13.90;99.90;;;;;;6297239;28;20052;-70
2022/05/20 02:03:51;;;;;;;14.65;9.02;;;13.80;99.90;;;;;;6297109;28;20055;-70
2022/05/20 02:06:56;;;;;;;10.73;7.22;;;13.80;99.90;;;;;;6295715;28;20446;-70
2022/05/20 02:10:05;;;;;;;9.98;8.30;;;13.70;99.90;;;;;;6297829;28;20052;-70
2022/05/20 02:13:09;;;;;;;13.68;9.48;;;13.70;99.90;;;;;;6297624;28;20076;-70
2022/05/20 02:16:15;;;;;;;10.75;8.80;;;13.60;99.90;;;;;;6281334;28;20072;-70
2022/05/20 02:19:21;;;;;;;13.10;9.23;;;13.50;99.90;;;;;;6296306;28;20531;-70
2022/05/20 02:22:27;;;;;;;10.48;9.00;;;13.50;99.90;;;;;;6295507;28;20135;-69
2022/05/20 02:25:34;;;;;;;12.85;9.80;;;13.40;99.90;;;;;;6293336;28;20063;-70
2022/05/20 02:28:40;;;;;;;11.95;10.10;;;13.40;99.90;;;;;;6295153;28;20036;-69
2022/05/20 02:31:46;;;;;;;12.43;9.63;;;13.40;99.90;;;;;;6296915;28;20648;-70
2022/05/20 02:34:50;;;;;;;12.00;8.93;;;13.30;99.90;;;;;;6292284;28;20048;-69
2022/05/20 02:37:52;;;;;;;14.68;9.95;;;13.30;99.90;;;;;;6293974;28;20044;-70
2022/05/20 02:40:55;;;;;;;12.85;9.90;;;13.20;99.90;;;;;;6297420;28;20127;-70
2022/05/20 02:43:57;;;;;;;14.20;9.73;;;13.20;99.90;;;;;;6296865;28;20491;-70
2022/05/20 02:46:59;;;;;;;16.20;10.95;;;13.00;99.90;;;;;;6288755;28;20049;-69
2022/05/20 02:50:02;;;;;;;13.70;10.52;;;12.90;99.90;;;;;;6296707;28;20087;-71
2022/05/20 02:53:04;;;;;;;14.07;10.57;;;12.80;99.90;;;;;;6295376;28;20052;-69
2022/05/20 02:56:07;;;;;;;14.30;10.70;;;12.70;99.90;;;;;;6287100;28;20487;-70
2022/05/20 03:05:49;;;;;;;15.20;10.57;;;12.60;99.90;;;;;;6291100;28;20049;-70
2022/05/20 03:08:52;;;;;;;13.60;11.57;;;12.60;99.90;;;;;;6295408;28;20619;-69
2022/05/20 03:11:55;;;;;;;16.40;12.05;;;12.50;99.90;;;;;;6295375;28;20049;-71
2022/05/20 03:14:57;;;;;;;15.02;11.70;;;12.50;99.90;;;;;;6291875;28;20513;-69
2022/05/20 03:17:59;;;;;;;17.20;11.68;;;12.50;99.90;;;;;;6296160;28;20044;-70
2022/05/20 03:21:02;;;;;;;16.73;11.52;;;12.50;99.90;;;;;;6296049;28;20170;-70
2022/05/20 03:24:06;;;;;;;18.77;12.68;;;12.50;99.90;;;;;;6293422;28;20044;-70
2022/05/20 03:27:10;;;;;;;15.32;10.70;;;12.50;99.90;;;;;;6294718;28;20045;-70
2022/05/20 03:30:13;;;;;;;12.93;11.30;;;12.50;99.90;;;;;;6294845;28;20398;-70
2022/05/20 03:33:14;;;;;;;13.13;11.00;;;12.50;99.90;;;;;;6295335;28;20187;-70
2022/05/20 03:36:16;;;;;;;12.50;10.45;;;12.50;99.90;;;;;;6291449;28;20048;-69
2022/05/20 03:39:21;;;;;;;15.60;10.05;;;12.50;99.90;;;;;;6296695;28;20139;-70
2022/05/20 03:42:25;;;;;;;15.85;10.57;;;12.50;99.90;;;;;;6295430;28;20053;-69
2022/05/20 03:45:27;;;;;;;15.93;11.18;;;12.50;99.90;;;;;;6293843;28;20531;-69
2022/05/20 03:48:29;;;;;;;14.48;11.13;;;12.50;99.90;;;;;;6296305;28;20546;-69
2022/05/20 03:51:31;;;;;;;12.27;10.48;;;12.50;99.90;;;;;;6295138;28;20085;-70
2022/05/20 03:54:34;;;;;;;13.23;11.23;;;12.50;99.90;;;;;;6289548;28;20044;-69
2022/05/20 03:57:37;;;;;;;17.43;11.97;;;12.50;99.90;;;;;;6270706;28;20562;-70
2022/05/20 04:03:55;;;;;;;16.15;11.93;;;12.40;99.90;;;;;;6290095;28;20131;-70
2022/05/20 04:06:57;;;;;;;14.30;12.15;;;12.40;99.90;;;;;;6292476;28;20412;-70
2022/05/20 04:09:59;;;;;;;14.32;12.48;;;12.40;99.90;;;;;;6296228;28;20128;-70
2022/05/20 04:13:03;;;;;;;15.20;13.15;;;12.40;99.90;;;;;;6293994;28;20131;-70
2022/05/20 04:16:05;;;;;;;16.70;12.15;;;12.30;99.90;;;;;;6296921;28;20088;-69
2022/05/20 04:19:07;;;;;;;14.88;12.68;;;12.40;99.90;;;;;;6300189;28;20132;-70
2022/05/20 04:22:12;;;;;;;14.25;12.77;;;12.40;99.90;;;;;;6298929;28;20831;-70
2022/05/20 04:25:14;;;;;;;18.52;13.32;;;12.40;99.90;;;;;;6293247;28;20131;-70
2022/05/20 04:28:17;;;;;;;18.85;13.85;;;12.40;99.90;;;;;;6281374;28;20049;-70
2022/05/20 04:31:19;;;;;;;16.02;13.40;;;12.50;99.90;;;;;;6286748;28;20455;-70
2022/05/20 04:34:21;;;;;;;16.00;13.55;;;12.50;99.90;;;;;;6290798;28;20140;-70
2022/05/20 04:37:25;;;;;;;18.40;14.10;;;12.50;99.90;;;;;;6298791;28;20492;-70
2022/05/20 04:40:27;;;;;;;22.67;15.00;;;12.60;99.90;;;;;;6298009;28;20177;-69
2022/05/20 04:46:58;;;;;;;16.17;13.52;;;12.70;99.90;;;;;;6295217;28;20635;-69
2022/05/20 04:50:00;;;;;;;20.55;13.68;;;12.80;99.90;;;;;;6299902;28;20078;-69
2022/05/20 04:53:01;;;;;;;10.50;7.20;;;12.90;99.90;;;;;;6298452;28;20090;-69
2022/05/20 04:56:03;;;;;;;22.13;13.93;;;13.00;99.90;;;;;;6296534;28;20139;-70
2022/05/20 04:59:06;;;;;;;18.85;13.52;;;13.10;99.90;;;;;;6297774;28;20135;-70
2022/05/20 05:02:08;;;;;;;18.00;13.65;;;13.10;99.90;;;;;;6299605;28;20181;-70
2022/05/20 05:05:12;;;;;;;21.17;14.00;;;13.20;99.90;;;;;;6287183;28;20049;-70
2022/05/20 05:08:16;;;;;;;14.20;9.90;;;13.10;99.90;;;;;;6287995;28;20047;-69
2022/05/20 05:11:17;;;;;;;;;;;13.20;99.90;;;;;;6299220;28;20044;-69
2022/05/20 05:14:21;;;;;;;19.27;12.50;;;13.30;99.90;;;;;;6294372;28;20598;-69
2022/05/20 05:20:46;;;;;;;20.00;13.57;;;13.40;99.90;;;;;;6256060;28;20136;-70
2022/05/20 05:23:48;;;;;;;14.23;9.13;;;13.30;99.90;;;;;;6298407;28;20059;-69
2022/05/20 05:26:49;;;;;;;22.35;14.73;;;13.40;99.90;;;;;;6295909;28;20049;-69
2022/05/20 05:29:53;;;;;;;17.63;12.55;;;13.50;99.90;;;;;;6288571;28;20048;-68
2022/05/20 05:32:54;;;;;;;20.08;15.07;;;13.60;99.90;;;;;;6291020;28;20041;-69
2022/05/20 05:35:56;;;;;;;24.92;16.58;;;13.50;99.90;;;;;;6298485;28;20616;-69
2022/05/20 05:38:58;;;;;;;25.33;16.77;;;13.60;99.90;;;;;;6297736;28;20076;-69
2022/05/20 05:42:01;;;;;;;23.20;16.08;;;13.60;99.90;;;;;;6298506;28;20131;-69
2022/05/20 05:45:06;;;;;;;16.15;10.30;;;13.60;99.90;;;;;;6297235;28;20062;-69
2022/05/20 05:48:10;;;;;;;18.02;11.20;;;13.70;99.90;;;;;;6269383;28;20048;-70
2022/05/20 05:51:12;;;;;;;24.08;15.10;;;13.80;99.90;;;;;;6219593;28;20092;-69
2022/05/20 05:54:14;;;;;;;21.85;14.57;;;13.90;99.90;;;;;;6247392;28;20136;-69
2022/05/20 05:57:16;;;;;;;21.15;13.48;;;13.90;99.90;;;;;;6248143;28;20140;-69
2022/05/20 06:00:20;;;;;;;19.30;12.43;;;14.00;99.90;;;;;;6243568;28;20049;-69
2022/05/20 06:03:23;;;;;;;19.05;13.60;;;14.00;99.90;;;;;;6247164;28;20055;-69
2022/05/20 06:06:25;;;;;;;21.73;14.18;;;14.00;99.90;;;;;;6247610;28;20129;-66
2022/05/20 06:09:27;;;;;;;20.13;14.80;;;14.00;99.90;;;;;;6245416;28;20143;-68
2022/05/20 06:12:31;;;;;;;24.35;15.45;;;14.10;99.90;;;;;;6246301;28;20037;-67
2022/05/20 06:15:34;;;;;;;;;;;14.10;99.90;;;;;;6231364;28;20046;-68
2022/05/20 06:18:36;;;;;;;27.05;16.75;;;14.00;99.90;;;;;;6243520;28;19929;-67
2022/05/20 06:21:40;;;;;;;19.65;10.52;;;13.90;99.90;;;;;;6246823;28;20129;-66
2022/05/20 06:24:42;;;;;;;23.42;16.13;;;14.10;99.90;;;;;;6245262;28;20569;-67
2022/05/20 06:27:44;;;;;;;27.30;15.93;;;14.50;99.90;;;;;;6245120;28;20128;-66
2022/05/20 06:30:48;;;;;;;24.75;16.00;;;14.80;99.90;;;;;;6243310;28;20067;-67
2022/05/20 06:33:50;;;;;;;22.95;15.80;;;14.80;99.90;;;;;;6245320;28;20568;-67
2022/05/20 06:40:18;;;;;;;22.00;15.38;;;14.60;99.90;;;;;;6244873;28;20061;-67
2022/05/20 06:43:21;;;;;;;16.55;13.02;;;14.60;99.90;;;;;;6247087;28;20120;-67
2022/05/20 06:46:25;;;;;;;20.33;14.95;;;14.50;99.90;;;;;;6245130;28;20045;-67
2022/05/20 06:49:27;;;;;;;19.73;14.10;;;14.60;99.90;;;;;;6245183;28;20466;-67
2022/05/20 06:52:28;;;;;;;22.13;13.40;;;14.50;99.90;;;;;;6246192;28;20128;-67
2022/05/20 06:55:30;;;;;;;19.83;13.32;;;14.90;99.90;;;;;;6245304;28;20500;-67
2022/05/20 06:58:32;;;;;;;14.10;10.48;;;15.50;99.90;;;;;;6242419;28;20124;-67
2022/05/20 07:01:37;;;;;;;15.95;9.35;;;15.90;99.90;;;;;;6242976;28;20501;-67
2022/05/20 07:04:39;;;;;;;15.20;8.90;;;16.20;99.90;;;;;;6227325;28;20056;-67
2022/05/20 07:07:41;;;;;;;9.32;4.63;;;16.60;99.90;;;;;;6237964;28;20103;-67
2022/05/20 07:10:43;;;;;;;12.75;6.97;;;16.80;99.90;;;;;;6245758;28;20037;-67
2022/05/20 07:13:45;;;;;;;12.82;7.20;;;17.10;99.90;;;;;;6243482;28;20045;-67
2022/05/20 07:16:48;;;;;;;12.32;7.15;;;17.40;99.90;;;;;;6237398;28;20063;-67
2022/05/20 07:19:51;;;;;;;11.20;5.57;;;17.60;99.90;;;;;;6245207;28;20158;-67
2022/05/20 07:22:53;;;;;;;9.88;4.95;;;17.80;99.90;;;;;;6245937;28;20053;-67
2022/05/20 07:25:54;;;;;;;8.93;4.38;;;18.00;99.90;;;;;;6240990;28;20502;-67
2022/05/20 07:28:56;;;;;;;5.45;3.28;;;18.40;99.90;;;;;;6245798;28;20056;-67
2022/05/20 07:31:59;;;;;;;8.80;4.95;;;18.80;99.90;;;;;;6245606;28;20050;-68
2022/05/20 07:35:01;;;;;;;6.90;4.55;;;18.90;99.90;;;;;;6245679;28;20049;-67
2022/05/20 07:38:04;;;;;;;10.20;5.97;;;18.90;99.90;;;;;;6237526;28;20132;-68
2022/05/20 07:41:06;;;;;;;4.97;3.45;;;18.90;99.90;;;;;;6246549;28;20049;-67
2022/05/20 07:44:08;;;;;;;9.90;5.38;;;18.90;99.90;;;;;;6242332;28;20050;-68
2022/05/20 07:47:11;;;;;;;9.70;4.55;;;18.70;99.90;;;;;;6245625;28;20073;-67
2022/05/20 07:50:14;;;;;;;6.93;3.80;;;18.70;99.90;;;;;;6250266;28;20076;-67
2022/05/20 07:53:22;;;;;;;14.00;5.63;;;18.80;99.90;;;;;;6250511;28;20041;-67
2022/05/20 07:56:27;;;;;;;5.68;2.95;;;19.00;99.90;;;;;;6249912;28;20072;-67
2022/05/20 07:59:32;;;;;;;8.18;3.97;;;19.50;99.90;;;;;;6250644;28;20069;-67
2022/05/20 08:02:35;;;;;;;7.82;4.10;;;19.60;99.90;;;;;;6248638;28;20046;-67
2022/05/20 08:05:37;;;;;;;8.57;3.55;;;19.70;99.90;;;;;;6249544;28;20046;-68
2022/05/20 08:08:39;;;;;;;11.60;3.70;;;19.70;99.90;;;;;;6250281;28;20091;-67
2022/05/20 08:11:41;;;;;;;5.15;2.35;;;19.80;99.90;;;;;;6249044;28;20531;-68
2022/05/20 08:14:43;;;;;;;5.75;2.97;;;19.90;99.90;;;;;;6246948;28;20139;-68
2022/05/20 08:17:46;;;;;;;6.15;3.85;;;20.10;99.90;;;;;;6250017;28;20183;-68
2022/05/20 08:20:48;;;;;;;7.53;3.58;;;20.30;99.90;;;;;;6249248;28;20083;-67
2022/05/20 08:23:50;;;;;;;5.47;3.10;;;20.50;99.60;;;;;;6245881;28;20049;-67
2022/05/20 08:26:53;;;;;;;5.43;2.60;;;20.50;99.50;;;;;;6243322;28;20049;-67
2022/05/20 08:29:55;;;;;;;6.20;2.47;;;20.30;99.90;;;;;;6249926;28;20139;-67
2022/05/20 08:32:58;;;;;;;8.27;3.95;;;19.90;99.50;;;;;;6250448;28;20079;-67
2022/05/20 08:36:01;;;;;;;7.70;3.78;;;19.70;99.90;;;;;;6243929;28;20184;-68
2022/05/20 08:39:03;;;;;;;5.28;2.03;;;19.60;99.40;;;;;;6249393;28;20073;-67
2022/05/20 08:42:09;;;;;;;5.37;2.80;;;19.70;99.90;;;;;;6248733;28;20085;-67
2022/05/20 08:45:13;;;;;;;7.03;2.00;;;20.00;99.90;;;;;;6240548;28;20139;-67
2022/05/20 08:48:18;;;;;;;4.97;2.65;;;20.10;99.90;;;;;;6246401;28;20128;-67
2022/05/20 08:51:21;;;;;;;4.53;2.15;;;20.10;99.90;;;;;;6249193;28;20120;-68
2022/05/20 08:54:23;;;;;;;5.20;3.22;;;20.10;99.90;;;;;;6243999;28;20057;-68
2022/05/20 08:57:29;;;;;;;6.10;2.65;;;20.20;99.70;;;;;;6241141;28;20077;-68
2022/05/20 09:00:32;;;;;;;3.47;1.80;;;20.10;98.70;;;;;;6248365;28;20041;-68
2022/05/20 09:03:35;;;;;;;5.50;2.03;;;20.10;99.90;;;;;;6246487;28;20485;-68
2022/05/20 09:06:39;;;;;;;4.88;2.30;;;20.10;98.80;;;;;;6238310;28;20049;-67
2022/05/20 09:09:45;;;;;;;6.25;4.55;;;20.10;99.90;;;;;;6249204;28;20057;-68
2022/05/20 09:12:48;;;;;;;6.97;4.72;;;20.10;99.00;;;;;;6248672;28;20949;-68
2022/05/20 09:16:05;;;;;;;5.18;3.42;;;20.10;99.20;;;;;;6237779;28;20516;-68
2022/05/20 09:19:12;;;;;;;5.90;3.15;;;19.90;99.00;;;;;;6248648;28;20128;-68
2022/05/20 09:22:16;;;;;;;3.88;1.77;;;19.90;99.10;;;;;;6248234;28;20050;-68
2022/05/20 09:25:20;;;;;;;5.20;1.98;;;20.10;99.90;;;;;;6233467;28;20046;-67
2022/05/20 09:28:31;;;;;;;8.00;4.30;;;20.50;99.90;;;;;;6246495;28;20070;-68
2022/05/20 09:31:43;;;;;;;8.05;4.45;;;20.60;97.00;;;;;;6245591;28;20128;-68
2022/05/20 09:34:46;;;;;;;6.32;3.38;;;20.40;97.70;;;;;;6241745;28;20045;-69
2022/05/20 09:37:50;;;;;;;5.82;3.63;;;20.40;98.00;;;;;;6247927;28;20123;-68
2022/05/20 09:40:52;;;;;;;6.32;3.55;;;20.20;97.50;;;;;;6248609;28;20080;-68
2022/05/20 09:43:59;;;;;;;5.35;2.95;;;20.20;98.10;;;;;;6244627;28;20042;-68
2022/05/20 09:47:14;;;;;;;3.55;1.63;;;20.20;98.30;;;;;;6238426;28;20065;-68
2022/05/20 09:50:26;;;;;;;5.45;3.47;;;20.30;98.80;;;;;;6247202;28;20401;-67
2022/05/20 09:53:36;;;;;;;6.18;3.30;;;20.60;98.30;;;;;;6246790;28;20544;-68
2022/05/20 09:56:41;;;;;;;4.30;1.80;;;20.80;97.10;;;;;;6244277;28;20041;-68
2022/05/20 09:59:50;;;;;;;5.72;3.00;;;20.80;97.70;;;;;;6237648;28;20047;-68
2022/05/20 10:02:59;;;;;;;6.72;4.18;;;21.00;97.60;;;;;;6245745;28;20049;-68
2022/05/20 10:06:09;;;;;;;4.43;2.67;;;21.20;97.40;;;;;;6247038;28;20084;-68
2022/05/20 10:09:24;;;;;;;6.65;3.85;;;21.20;97.20;;;;;;6247025;28;20088;-68
2022/05/20 10:12:30;;;;;;;6.18;3.75;;;21.10;96.60;;;;;;6246232;28;20132;-69
2022/05/20 10:15:34;;;;;;;7.63;3.72;;;21.00;95.40;;;;;;6246351;28;20203;-68
2022/05/20 10:18:43;;;;;;;7.13;3.00;;;20.50;95.00;;;;;;6195834;28;20055;-69
2022/05/20 10:22:00;;;;;;;3.22;1.83;;;20.40;96.60;;;;;;6271982;28;20125;-68
2022/05/20 10:25:09;;;;;;;5.70;2.30;;;20.60;98.20;;;;;;6268241;28;20128;-68
2022/05/20 10:35:20;;;;;;;6.05;3.13;;;20.60;96.60;;;;;;6266099;28;20041;-68
2022/05/20 10:38:48;;;;;;;5.40;3.95;;;20.50;96.60;;;;;;6270147;28;20110;-68
2022/05/20 10:42:03;;;;;;;4.00;1.95;;;20.50;96.20;;;;;;6264583;28;20052;-70
2022/05/20 10:49:11;;;;;;;7.38;4.00;;;20.70;97.50;;;;;;6270712;28;20041;-73
2022/05/20 10:52:21;;;;;;;10.10;3.58;;;20.90;96.80;;;;;;6261529;28;20045;-73
2022/05/20 10:55:38;;;;;;;7.93;4.03;;;21.10;98.20;;;;;;6242638;28;20132;-74
2022/05/20 10:58:54;;;;;;;7.75;5.00;;;21.40;97.20;;;;;;6226448;28;20044;-73
2022/05/20 11:02:07;;;;;;;7.45;4.85;;;21.60;96.50;;;;;;6245841;28;20053;-73
2022/05/20 11:05:26;;;;;;;6.88;4.95;;;21.40;95.90;;;;;;6243402;28;20200;-73
2022/05/20 11:08:38;;;;;;;7.15;4.53;;;21.20;96.00;;;;;;6245083;28;20143;-73
2022/05/20 11:12:01;;;;;;;6.15;5.03;;;21.30;95.60;;;;;;6240062;28;20123;-73
2022/05/20 11:15:23;;;;;;;6.68;3.40;;;21.30;96.40;;;;;;6237526;28;20053;-74
2022/05/20 11:18:41;;;;;;;6.90;4.50;;;21.30;95.40;;;;;;6243837;28;20046;-73
2022/05/20 11:22:13;;;;;;;6.88;4.60;;;21.10;94.40;;;;;;6244320;28;20049;-74
2022/05/20 11:25:36;;;;;;;6.00;4.53;;;20.90;93.90;;;;;;6235755;28;20073;-74
2022/05/20 11:29:24;;;;;;;6.82;5.22;;;20.80;95.10;;;;;;6243554;28;20445;-75
2022/05/20 11:32:50;;;;;;;7.43;5.68;;;20.80;93.60;;;;;;6230357;28;20056;-75
2022/05/20 11:36:07;;;;;;;5.07;4.03;;;20.80;94.90;;;;;;6238980;28;20057;-76
2022/05/20 11:39:49;;;;;;;5.97;5.35;;;20.80;95.50;;;;;;6245036;28;20559;-75
2022/05/20 11:43:21;;;;;;;6.30;5.10;;;21.00;94.90;;;;;;6243032;28;20137;-76
2022/05/20 11:46:39;;;;;;;6.75;4.68;;;21.10;94.70;;;;;;6233390;28;20127;-74
2022/05/20 11:50:00;;;;;;;6.72;5.78;;;21.10;95.30;;;;;;6237140;28;20140;-74
2022/05/20 11:53:08;;;;;;;6.40;5.80;;;21.30;94.80;;;;;;6245072;28;20046;-74
2022/05/20 11:56:19;;;;;;;6.28;5.03;;;21.40;95.00;;;;;;6240777;28;20050;-75
2022/05/20 11:59:25;;;;;;;7.72;4.00;;;21.40;94.10;;;;;;6245019;28;20049;-75
2022/05/20 12:02:32;;;;;;;5.43;4.18;;;21.30;94.00;;;;;;6243420;28;20164;-75
2022/05/20 12:05:39;;;;;;;7.35;4.35;;;21.40;94.40;;;;;;6241017;28;20140;-75
2022/05/20 12:08:53;;;;;;;6.40;4.28;;;21.40;93.70;;;;;;6245671;28;20046;-75
2022/05/20 12:12:25;;;;;;;5.85;4.30;;;21.40;93.40;;;;;;6244441;28;20084;-75
2022/05/20 12:15:47;;;;;;;7.97;3.95;;;21.30;92.90;;;;;;6210710;28;20049;-76
2022/05/20 12:26:40;;;;;;;7.05;4.85;;;21.50;93.90;;;;;;6191522;28;20145;-77
2022/05/20 12:30:00;;;;;;;4.78;4.22;;;21.50;92.90;;;;;;6199623;28;20041;-75
2022/05/20 12:33:19;;;;;;;5.95;5.00;;;21.40;92.70;;;;;;6232478;28;20042;-76
2022/05/20 12:36:34;;;;;;;7.70;3.63;;;21.30;93.00;;;;;;6225775;28;20136;-77
2022/05/20 12:39:50;;;;;;;4.70;3.63;;;21.20;93.50;;;;;;6226000;28;20061;-71
2022/05/20 12:42:58;;;;;;;8.55;4.05;;;21.20;93.60;;;;;;6230515;28;20195;-71
2022/05/20 12:46:00;;;;;;;5.15;4.28;;;21.30;93.70;;;;;;6250574;28;20056;-71
2022/05/20 12:49:03;;;;;;;4.93;4.00;;;21.40;93.90;;;;;;6246122;28;20045;-73
2022/05/20 12:52:12;;;;;;;6.13;2.20;;;21.40;92.80;;;;;;6247365;28;20132;-70
2022/05/20 12:55:18;;;;;;;3.33;2.80;;;21.50;93.80;;;;;;6250132;28;20059;-70
2022/05/20 12:58:25;;;;;;;4.97;2.35;;;21.60;92.70;;;;;;6249691;28;20111;-70
2022/05/20 13:01:28;;;;;;;7.70;1.90;;;21.60;91.90;;;;;;6248644;28;20172;-70
2022/05/20 13:04:37;;;;;;;5.00;2.30;;;21.70;92.10;;;;;;6250333;28;20140;-72
2022/05/20 13:07:42;;;;;;;4.53;2.63;;;21.70;90.80;;;;;;6248744;28;20049;-71
2022/05/20 13:10:45;;;;;;;7.03;3.47;;;21.70;91.80;;;;;;6249910;28;20552;-72
2022/05/20 13:13:51;;;;;;;8.35;3.50;;;21.60;92.00;;;;;;6249770;28;20422;-72
2022/05/20 13:16:56;;;;;;;4.72;2.95;;;21.50;92.20;;;;;;6248903;28;20140;-72
2022/05/20 13:19:59;;;;;;;5.05;3.58;;;21.40;93.30;;;;;;6249691;28;20052;-72
2022/05/20 13:23:05;;;;;;;5.35;2.85;;;21.30;92.90;;;;;;6249747;28;20069;-72
2022/05/20 13:26:20;;;;;;;4.82;3.17;;;21.20;92.40;;;;;;6249617;28;20136;-72
2022/05/20 13:29:22;;;;;;;2.63;1.55;;;21.00;93.20;;;;;;6247795;28;20097;-73
2022/05/20 13:32:30;;;;;;;4.32;3.30;;;20.90;93.80;;;;;;6248668;28;20136;-71
2022/05/20 13:35:39;;;;;;;5.03;2.03;;;20.90;93.60;;;;;;6249059;28;20571;-71
2022/05/20 13:38:46;;;;;;;4.32;2.03;;;20.90;94.60;;;;;;6248556;28;20184;-71
2022/05/20 13:41:49;;;;;;;3.78;1.80;;;20.90;94.60;;;;;;6248999;28;20056;-71
2022/05/20 13:44:51;;;;;;;2.88;2.25;;;21.00;94.40;;;;;;6248698;28;20053;-70
2022/05/20 13:51:13;;;;;;;6.72;3.90;;;20.80;94.60;;;;;;6248723;28;20429;-71
2022/05/20 13:54:20;;;;;;;5.05;3.25;;;20.60;93.40;;;;;;6248779;28;20580;-72
2022/05/20 13:57:29;;;;;;;4.35;3.20;;;20.60;94.10;;;;;;6247618;28;20052;-72
2022/05/20 14:00:34;;;;;;;9.02;3.70;;;20.50;93.80;;;;;;6248551;28;20053;-71
2022/05/20 14:03:41;;;;;;;4.10;3.40;;;20.40;94.00;;;;;;6248565;28;20132;-71
2022/05/20 14:06:43;;;;;;;6.57;4.13;;;20.40;94.20;;;;;;6248242;28;20060;-71
2022/05/20 14:09:51;;;;;;;2.42;1.90;;;20.10;94.90;;;;;;6247718;28;20184;-71
2022/05/20 14:13:05;;;;;;;4.32;2.25;;;20.10;95.50;;;;;;6248142;28;20087;-70
2022/05/20 14:16:11;;;;;;;4.40;3.70;;;20.00;96.10;;;;;;6248112;28;20057;-71
2022/05/20 14:19:18;;;;;;;4.60;4.20;;;19.90;96.70;;;;;;6247307;28;20506;-71
2022/05/20 14:22:25;;;;;;;4.65;3.60;;;19.80;97.60;;;;;;6248451;28;20049;-71
2022/05/20 14:25:31;;;;;;;2.53;1.30;;;19.60;97.40;;;;;;6247437;28;20053;-71
2022/05/20 14:28:43;;;;;;;5.90;3.72;;;19.50;97.60;;;;;;6245408;28;20498;-71
2022/05/20 14:31:49;;;;;;;5.85;4.13;;;19.40;97.50;;;;;;6246254;28;20436;-70
2022/05/20 14:34:56;;;;;;;5.35;4.18;;;19.30;98.80;;;;;;6248198;28;20092;-71
2022/05/20 14:38:01;;;;;;;6.65;4.95;;;19.00;99.40;;;;;;6247623;28;20150;-71
2022/05/20 14:41:05;;;;;;;6.78;5.18;;;18.80;99.90;;;;;;6246664;28;20573;-71
2022/05/20 14:44:09;;;;;;;8.07;4.70;;;18.70;99.90;;;;;;6247957;28;20096;-71
2022/05/20 14:47:15;;;;;;;8.02;5.38;;;18.50;99.90;;;;;;6246625;28;20191;-71
2022/05/20 14:50:19;;;;;;;8.80;5.55;;;18.40;99.90;;;;;;6247678;28;20045;-70
2022/05/20 14:53:25;;;;;;;10.95;6.40;;;18.20;99.90;;;;;;6226340;28;20133;-71
2022/05/20 14:56:43;;;;;;;9.90;7.88;;;18.00;99.90;;;;;;6222507;28;20050;-70
2022/05/20 14:59:46;;;;;;;10.88;7.80;;;17.80;99.90;;;;;;6245921;28;20052;-71
2022/05/20 15:02:48;;;;;;;16.52;8.85;;;17.60;99.90;;;;;;6246574;28;20188;-71
2022/05/20 15:05:52;;;;;;;13.98;10.35;;;17.40;99.90;;;;;;6246775;28;20410;-71
2022/05/20 15:08:55;;;;;;;13.57;10.25;;;17.30;99.90;;;;;;6246184;28;20139;-71
2022/05/20 15:11:59;;;;;;;10.73;8.20;;;17.30;99.90;;;;;;6247322;28;20056;-71
2022/05/20 15:15:00;;;;;;;12.65;9.07;;;17.30;99.90;;;;;;6246346;28;20053;-71
2022/05/20 15:18:09;;;;;;;14.43;11.15;;;17.30;99.90;;;;;;6246946;28;20057;-71
2022/05/20 15:21:13;;;;;;;14.48;11.77;;;17.20;99.90;;;;;;6246671;28;20049;-71
2022/05/20 15:24:20;;;;;;;17.63;12.65;;;17.10;99.90;;;;;;6246119;28;20132;-71
2022/05/20 15:27:25;;;;;;;16.33;13.45;;;17.10;99.90;;;;;;6246683;28;20525;-71
2022/05/20 15:30:27;;;;;;;15.85;13.10;;;17.10;99.90;;;;;;6246938;28;20045;-71
2022/05/20 15:36:49;;;;;;;16.35;13.73;;;16.90;99.90;;;;;;6245828;28;20082;-71
2022/05/20 15:39:54;;;;;;;21.35;15.77;;;16.70;99.90;;;;;;6246681;28;20081;-71
2022/05/20 15:42:58;;;;;;;21.45;16.80;;;16.60;99.90;;;;;;6246487;28;20046;-71
2022/05/20 15:46:00;;;;;;;26.75;17.52;;;16.40;99.90;;;;;;6245971;28;20049;-71
2022/05/20 15:49:02;;;;;;;21.55;16.45;;;16.20;99.90;;;;;;6246408;28;20398;-71
2022/05/20 15:52:07;;;;;;;25.00;19.65;;;16.10;99.90;;;;;;6246416;28;20073;-71
2022/05/20 15:55:17;;;;;;;29.08;20.90;;;16.00;99.90;;;;;;6244193;28;20053;-71
2022/05/20 15:58:22;;;;;;;26.63;20.92;;;15.90;99.90;;;;;;6246363;28;20128;-70
2022/05/20 16:01:25;;;;;;;34.05;25.65;;;15.80;99.90;;;;;;6246427;28;20445;-71
2022/05/20 16:04:30;;;;;;;29.20;21.10;;;15.70;99.90;;;;;;6245852;28;20080;-70
2022/05/20 16:07:32;;;;;;;23.30;18.42;;;15.60;99.90;;;;;;6246434;28;20139;-73
2022/05/20 16:10:36;;;;;;;33.53;21.85;;;15.40;99.90;;;;;;6251386;28;20136;-71
2022/05/20 16:13:39;;;;;;;35.05;22.17;;;15.10;99.90;;;;;;6250024;28;20136;-72
2022/05/20 16:16:41;;;;;;;29.70;20.80;;;14.90;99.90;;;;;;6250704;28;20081;-71
2022/05/20 16:19:43;;;;;;;32.92;21.80;;;14.70;99.90;;;;;;6250414;28;20049;-71
2022/05/20 16:22:47;;;;;;;26.45;20.50;;;14.70;99.90;;;;;;6250271;28;20466;-72
2022/05/20 16:25:50;;;;;;;26.77;20.02;;;14.60;99.90;;;;;;6251104;28;20054;-73
2022/05/20 16:28:54;;;;;;;31.92;22.20;;;14.40;99.90;;;;;;6249061;28;20199;-72
2022/05/20 16:31:56;;;;;;;33.47;23.65;;;14.30;99.90;;;;;;6250481;28;20045;-71
2022/05/20 16:34:58;;;;;;;30.92;22.67;;;14.30;99.90;;;;;;6250900;28;20077;-77
2022/05/20 16:38:00;;;;;;;30.45;21.40;;;14.20;99.90;;;;;;6250717;28;20052;-81
2022/05/20 16:41:04;;;;;;;33.65;22.77;;;14.10;99.90;;;;;;6250915;28;20119;-72
2022/05/20 16:44:08;;;;;;;39.72;26.55;;;14.10;99.90;;;;;;6250523;28;20046;-72
2022/05/20 16:47:11;;;;;;;35.05;26.02;;;14.10;99.90;;;;;;6250325;28;20199;-71